createdAt,value
2023-02-01T00:00:58.553Z,100654.59
2023-02-01T00:03:25.455Z,100652.22
2023-02-01T00:05:59.678Z,100642.56
2023-02-01T00:08:27.304Z,100639.16
2023-02-01T00:11:02.548Z,100640.19
2023-02-01T00:13:31.412Z,100636.78
2023-02-01T00:16:26.339Z,100637.03
2023-02-01T00:18:58.781Z,100638.84
2023-02-01T00:21:25.728Z,100647.78
2023-02-01T00:23:52.569Z,100633.78
2023-02-01T00:26:43.630Z,100632.28
2023-02-01T00:29:14.307Z,100625.38
2023-02-01T00:31:41.458Z,100648.31
2023-02-01T00:34:09.974Z,100672.19
2023-02-01T00:36:36.873Z,100653.09
2023-02-01T00:39:03.996Z,100680.34
2023-02-01T00:41:30.861Z,100689.19
2023-02-01T00:43:57.703Z,100665.38
2023-02-01T00:46:25.212Z,100669.06
2023-02-01T00:48:52.356Z,100656.88
2023-02-01T00:51:22.669Z,100663.84
2023-02-01T00:53:50.034Z,100637.59
2023-02-01T00:56:16.979Z,100638.41
2023-02-01T00:58:46.078Z,100630.59
2023-02-01T01:01:18.443Z,100628.88
2023-02-01T01:03:56.988Z,100617.63
2023-02-01T01:06:26.751Z,100597.50
2023-02-01T01:08:55.220Z,100598.28
2023-02-01T01:11:25.095Z,100592.22
2023-02-01T01:13:52.977Z,100586.94
2023-02-01T01:16:21.582Z,100582.47
2023-02-01T01:18:48.705Z,100571.91
2023-02-01T01:21:17.020Z,100564.94
2023-02-01T01:23:45.006Z,100587.88
2023-02-01T01:26:24.058Z,100587.09
2023-02-01T01:28:51.689Z,100590.59
2023-02-01T01:31:20.827Z,100602.97
2023-02-01T01:33:56.258Z,100601.25
2023-02-01T01:36:23.494Z,100584.53
2023-02-01T01:38:50.528Z,100579.34
2023-02-01T01:41:20.489Z,100583.00
2023-02-01T01:43:47.255Z,100596.13
2023-02-01T01:46:18.778Z,100569.88
2023-02-01T01:48:46.986Z,100566.22
2023-02-01T01:51:18.439Z,100570.66
2023-02-01T01:53:55.405Z,100581.22
2023-02-01T01:56:23.365Z,100584.72
2023-02-01T01:58:50.324Z,100592.72
2023-02-01T02:01:17.815Z,100590.09
2023-02-01T02:03:46.946Z,100584.91
2023-02-01T02:06:28.829Z,100581.38
2023-02-01T02:08:55.739Z,100569.03
2023-02-01T02:11:22.827Z,100573.38
2023-02-01T02:13:53.436Z,100559.28
2023-02-01T02:16:57.232Z,100548.78
2023-02-01T02:20:01.820Z,100535.56
2023-02-01T02:22:59.540Z,100524.94
2023-02-01T02:25:45.773Z,100519.63
2023-02-01T02:28:50.120Z,100510.00
2023-02-01T02:31:42.902Z,100513.53
2023-02-01T02:34:46.882Z,100510.78
2023-02-01T02:37:16.764Z,100506.41
2023-02-01T02:39:50.504Z,100500.34
2023-02-01T02:42:48.057Z,100498.56
2023-02-01T02:46:19.123Z,100475.63
2023-02-01T02:48:48.231Z,100454.41
2023-02-01T02:51:55.288Z,100459.69
2023-02-01T02:54:48.772Z,100458.84
2023-02-01T02:58:03.626Z,100445.63
2023-02-01T03:00:52.384Z,100459.63
2023-02-01T03:03:37.909Z,100453.47
2023-02-01T03:06:06.901Z,100454.41
2023-02-01T03:08:33.790Z,100456.97
2023-02-01T03:11:07.909Z,100450.84
2023-02-01T03:13:53.020Z,100454.41
2023-02-01T03:16:42.926Z,100456.97
2023-02-01T03:19:50.635Z,100455.25
2023-02-01T03:22:27.869Z,100460.56
2023-02-01T03:25:04.067Z,100451.69
2023-02-01T03:27:44.829Z,100463.13
2023-02-01T03:30:22.618Z,100464.81
2023-02-01T03:33:01.698Z,100477.09
2023-02-01T03:36:02.620Z,100483.25
2023-02-01T03:38:42.404Z,100484.00
2023-02-01T03:41:21.104Z,100495.50
2023-02-01T03:43:59.985Z,100502.50
2023-02-01T03:46:36.448Z,100502.50
2023-02-01T03:49:10.114Z,100504.19
2023-02-01T03:51:39.883Z,100506.81
2023-02-01T03:54:10.864Z,100511.28
2023-02-01T03:56:42.653Z,100505.91
2023-02-01T03:59:09.840Z,100498.81
2023-02-01T04:01:36.694Z,100509.31
2023-02-01T04:04:03.722Z,100510.09
2023-02-01T04:06:30.723Z,100506.59
2023-02-01T04:08:57.570Z,100504.81
2023-02-01T04:11:24.445Z,100509.13
2023-02-01T04:13:51.215Z,100509.13
2023-02-01T04:16:18.031Z,100503.78
2023-02-01T04:18:44.924Z,100515.28
2023-02-01T04:21:11.742Z,100518.78
2023-02-01T04:23:38.521Z,100534.53
2023-02-01T04:26:06.113Z,100532.00
2023-02-01T04:28:32.939Z,100537.28
2023-02-01T04:31:00.184Z,100538.97
2023-02-01T04:33:27.323Z,100544.25
2023-02-01T04:35:54.198Z,100540.78
2023-02-01T04:38:21.085Z,100546.72
2023-02-01T04:40:49.312Z,100540.50
2023-02-01T04:43:17.544Z,100536.91
2023-02-01T04:45:51.264Z,100549.38
2023-02-01T04:48:19.577Z,100546.56
2023-02-01T04:50:49.861Z,100554.50
2023-02-01T04:53:16.973Z,100557.13
2023-02-01T04:55:44.939Z,100552.78
2023-02-01T04:58:12.021Z,100560.63
2023-02-01T05:00:38.973Z,100570.34
2023-02-01T05:03:06.383Z,100565.81
2023-02-01T05:05:33.223Z,100569.31
2023-02-01T05:08:00.129Z,100566.78
2023-02-01T05:10:26.991Z,100577.19
2023-02-01T05:13:12.595Z,100580.75
2023-02-01T05:15:39.469Z,100595.59
2023-02-01T05:18:06.444Z,100603.63
2023-02-01T05:20:33.335Z,100596.47
2023-02-01T05:23:00.217Z,100613.19
2023-02-01T05:25:27.054Z,100614.97
2023-02-01T05:27:54.851Z,100628.09
2023-02-01T05:30:22.262Z,100627.22
2023-02-01T05:32:53.694Z,100626.31
2023-02-01T05:35:20.661Z,100624.53
2023-02-01T05:37:47.582Z,100621.88
2023-02-01T05:40:14.538Z,100640.88
2023-02-01T05:42:41.482Z,100638.75
2023-02-01T05:45:09.074Z,100641.13
2023-02-01T05:47:35.891Z,100635.66
2023-02-01T05:50:04.053Z,100632.72
2023-02-01T05:52:31.364Z,100644.34
2023-02-01T05:54:58.160Z,100635.94
2023-02-01T05:57:25.025Z,100642.91
2023-02-01T05:59:51.822Z,100646.41
2023-02-01T06:02:18.720Z,100642.84
2023-02-01T06:04:45.556Z,100657.69
2023-02-01T06:07:12.736Z,100654.94
2023-02-01T06:09:39.702Z,100653.06
2023-02-01T06:12:06.933Z,100662.69
2023-02-01T06:14:33.821Z,100660.63
2023-02-01T06:17:01.074Z,100659.59
2023-02-01T06:19:27.952Z,100660.47
2023-02-01T06:21:54.820Z,100662.00
2023-02-01T06:24:21.636Z,100667.03
2023-02-01T06:26:48.448Z,100654.47
2023-02-01T06:29:15.407Z,100668.34
2023-02-01T06:31:44.040Z,100669.22
2023-02-01T06:34:10.893Z,100669.16
2023-02-01T06:36:37.904Z,100669.72
2023-02-01T06:39:04.966Z,100679.09
2023-02-01T06:41:31.858Z,100686.00
2023-02-01T06:43:58.793Z,100684.97
2023-02-01T06:46:25.798Z,100691.03
2023-02-01T06:48:52.684Z,100697.94
2023-02-01T06:51:25.936Z,100691.72
2023-02-01T06:53:53.218Z,100697.75
2023-02-01T06:56:21.015Z,100705.53
2023-02-01T06:58:48.322Z,100708.06
2023-02-01T07:01:15.902Z,100719.44
2023-02-01T07:03:43.343Z,100699.19
2023-02-01T07:06:11.341Z,100697.31
2023-02-01T07:08:39.105Z,100699.06
2023-02-01T07:11:14.871Z,100701.34
2023-02-01T07:13:41.928Z,100705.34
2023-02-01T07:16:13.489Z,100709.81
2023-02-01T07:18:40.875Z,100720.50
2023-02-01T07:21:07.877Z,100734.84
2023-02-01T07:23:34.802Z,100732.84
2023-02-01T07:26:04.455Z,100733.44
2023-02-01T07:28:34.168Z,100746.50
2023-02-01T07:31:09.525Z,100743.00
2023-02-01T07:33:36.613Z,100740.63
2023-02-01T07:36:06.516Z,100737.72
2023-02-01T07:38:33.564Z,100745.59
2023-02-01T07:41:05.352Z,100738.41
2023-02-01T07:43:34.351Z,100738.41
2023-02-01T07:46:02.626Z,100749.00
2023-02-01T07:48:30.449Z,100745.59
2023-02-01T07:51:09.821Z,100750.03
2023-02-01T07:53:37.481Z,100759.56
2023-02-01T07:56:05.509Z,100751.75
2023-02-01T07:58:32.463Z,100759.75
2023-02-01T08:01:17.950Z,100758.81
2023-02-01T08:03:44.959Z,100751.91
2023-02-01T08:06:11.928Z,100752.78
2023-02-01T08:08:39.246Z,100754.72
2023-02-01T08:11:07.650Z,100758.22
2023-02-01T08:13:36.528Z,100761.78
2023-02-01T08:16:07.026Z,100766.16
2023-02-01T08:18:34.995Z,100777.66
2023-02-01T08:21:06.970Z,100780.41
2023-02-01T08:23:35.594Z,100779.53
2023-02-01T08:26:17.675Z,100784.75
2023-02-01T08:28:48.405Z,100787.38
2023-02-01T08:31:17.726Z,100783.91
2023-02-01T08:33:48.916Z,100785.59
2023-02-01T08:36:15.708Z,100789.97
2023-02-01T08:38:42.664Z,100802.44
2023-02-01T08:41:15.359Z,100794.50
2023-02-01T08:43:42.706Z,100810.38
2023-02-01T08:46:10.902Z,100803.44
2023-02-01T08:48:38.595Z,100807.72
2023-02-01T08:51:08.634Z,100817.44
2023-02-01T08:53:35.603Z,100828.09
2023-02-01T08:56:02.626Z,100835.97
2023-02-01T08:58:29.850Z,100832.53
2023-02-01T09:00:56.792Z,100843.88
2023-02-01T09:03:23.837Z,100840.38
2023-02-01T09:05:51.966Z,100836.03
2023-02-01T09:08:21.481Z,100837.75
2023-02-01T09:10:48.459Z,100839.63
2023-02-01T09:13:15.468Z,100840.47
2023-02-01T09:15:42.539Z,100842.31
2023-02-01T09:18:09.478Z,100838.00
2023-02-01T09:20:38.685Z,100851.13
2023-02-01T09:23:07.950Z,100841.66
2023-02-01T09:25:34.935Z,100855.66
2023-02-01T09:28:02.069Z,100848.63
2023-02-01T09:30:30.521Z,100849.50
2023-02-01T09:32:58.223Z,100855.66
2023-02-01T09:35:25.125Z,100863.59
2023-02-01T09:37:54.292Z,100859.22
2023-02-01T09:40:23.091Z,100863.75
2023-02-01T09:42:58.929Z,100878.69
2023-02-01T09:45:37.108Z,100882.25
2023-02-01T09:48:13.636Z,100880.53
2023-02-01T09:50:44.703Z,100891.91
2023-02-01T09:53:23.274Z,100902.56
2023-02-01T09:55:52.829Z,100892.06
2023-02-01T09:58:28.876Z,100900.88
2023-02-01T10:01:02.084Z,100895.63
2023-02-01T10:03:31.793Z,100898.28
2023-02-01T10:06:18.022Z,100906.16
2023-02-01T10:09:15.770Z,100898.28
2023-02-01T10:12:04.046Z,100906.22
2023-02-01T10:14:51.123Z,100908.88
2023-02-01T10:17:31.927Z,100919.44
2023-02-01T10:20:09.199Z,100920.38
2023-02-01T10:23:10.742Z,100930.13
2023-02-01T10:26:03.475Z,100933.69
2023-02-01T10:28:35.264Z,100932.91
2023-02-01T10:31:03.355Z,100942.63
2023-02-01T10:33:43.100Z,100945.28
2023-02-01T10:36:53.643Z,100949.63
2023-02-01T10:39:20.688Z,100942.53
2023-02-01T10:41:48.553Z,100956.63
2023-02-01T10:44:18.098Z,100949.63
2023-02-01T10:46:45.098Z,100960.22
2023-02-01T10:49:22.200Z,100966.34
2023-02-01T10:52:08.971Z,100965.50
2023-02-01T10:54:39.612Z,100962.78
2023-02-01T10:57:30.905Z,100966.34
2023-02-01T10:59:57.873Z,100972.50
2023-02-01T11:02:30.326Z,100973.50
2023-02-01T11:05:06.211Z,100977.16
2023-02-01T11:07:34.067Z,100970.94
2023-02-01T11:10:01.018Z,100976.22
2023-02-01T11:12:39.385Z,100983.31
2023-02-01T11:15:24.706Z,100990.38
2023-02-01T11:17:54.786Z,100986.97
2023-02-01T11:20:53.283Z,100992.16
2023-02-01T11:23:29.978Z,100993.13
2023-02-01T11:26:03.997Z,100991.34
2023-02-01T11:28:36.672Z,100989.50
2023-02-01T11:31:07.148Z,100991.38
2023-02-01T11:33:38.237Z,100995.81
2023-02-01T11:36:17.080Z,100998.41
2023-02-01T11:39:10.530Z,100999.31
2023-02-01T11:41:58.264Z,101001.09
2023-02-01T11:44:35.737Z,100994.94
2023-02-01T11:47:32.941Z,100993.16
2023-02-01T11:50:02.818Z,101003.75
2023-02-01T11:52:45.626Z,100990.69
2023-02-01T11:55:12.594Z,100997.69
2023-02-01T11:57:58.584Z,100992.41
2023-02-01T12:00:34.734Z,101001.25
2023-02-01T12:03:13.787Z,100999.56
2023-02-01T12:06:08.221Z,100997.84
2023-02-01T12:08:59.935Z,101022.41
2023-02-01T12:11:49.914Z,101014.47
2023-02-01T12:14:45.554Z,101010.06
2023-02-01T12:17:38.417Z,101017.94
2023-02-01T12:20:11.056Z,101015.28
2023-02-01T12:22:41.101Z,101010.81
2023-02-01T12:25:16.163Z,101008.13
2023-02-01T12:27:54.898Z,101003.75
2023-02-01T12:30:59.151Z,100997.53
2023-02-01T12:33:28.966Z,101000.09
2023-02-01T12:36:10.672Z,100999.25
2023-02-01T12:38:52.921Z,100988.50
2023-02-01T12:41:40.249Z,100986.88
2023-02-01T12:44:34.584Z,100989.47
2023-02-01T12:47:25.988Z,100992.00
2023-02-01T12:49:52.886Z,100975.28
2023-02-01T12:52:45.878Z,100972.63
2023-02-01T12:55:24.385Z,100970.19
2023-02-01T12:58:18.423Z,100978.09
2023-02-01T13:00:50.487Z,100978.03
2023-02-01T13:03:48.180Z,100976.22
2023-02-01T13:06:18.654Z,100972.72
2023-02-01T13:08:54.316Z,100968.38
2023-02-01T13:11:39.586Z,100976.22
2023-02-01T13:14:51.747Z,100981.53
2023-02-01T13:17:29.640Z,100970.09
2023-02-01T13:20:04.009Z,100975.38
2023-02-01T13:22:35.436Z,100978.88
2023-02-01T13:25:09.208Z,100978.94
2023-02-01T13:27:36.323Z,100983.22
2023-02-01T13:30:19.555Z,100986.81
2023-02-01T13:33:52.402Z,100983.22
2023-02-01T13:35:40.280Z,100988.50
2023-02-01T13:38:27.068Z,100984.16
2023-02-01T13:41:25.684Z,100980.66
2023-02-01T13:43:56.765Z,100985.09
2023-02-01T13:46:24.106Z,100985.84
2023-02-01T13:49:02.223Z,100983.22
2023-02-01T13:51:47.185Z,100976.22
2023-02-01T13:54:27.565Z,100982.13
2023-02-01T13:56:56.046Z,100982.75
2023-02-01T13:59:41.032Z,100974.72
2023-02-01T14:02:37.822Z,100984.47
2023-02-01T14:05:09.251Z,100981.03
2023-02-01T14:07:36.367Z,100988.81
2023-02-01T14:10:40.403Z,100984.53
2023-02-01T14:13:39.471Z,100997.06
2023-02-01T14:16:07.048Z,101004.38
2023-02-01T14:18:42.338Z,101007.50
2023-02-01T14:21:25.162Z,101007.56
2023-02-01T14:23:55.083Z,101003.44
2023-02-01T14:26:43.695Z,101006.22
2023-02-01T14:29:20.928Z,101007.78
2023-02-01T14:32:01.157Z,101006.53
2023-02-01T14:34:44.984Z,101021.34
2023-02-01T14:37:26.375Z,101024.69
2023-02-01T14:40:04.674Z,101019.22
2023-02-01T14:42:35.109Z,101035.03
2023-02-01T14:45:20.632Z,101026.78
2023-02-01T14:47:53.571Z,101028.72
2023-02-01T14:50:38.823Z,101028.03
2023-02-01T14:53:16.904Z,101037.94
2023-02-01T14:56:05.701Z,101032.50
2023-02-01T14:59:11.288Z,101024.44
2023-02-01T15:01:47.499Z,101033.00
2023-02-01T15:04:19.786Z,101040.09
2023-02-01T15:06:58.692Z,101037.44
2023-02-01T15:09:28.598Z,101039.13
2023-02-01T15:12:13.841Z,101043.50
2023-02-01T15:15:24.572Z,101045.44
2023-02-01T15:18:01.203Z,101048.03
2023-02-01T15:20:36.987Z,101051.59
2023-02-01T15:23:09.178Z,101067.34
2023-02-01T15:25:39.836Z,101059.44
2023-02-01T15:28:14.581Z,101062.06
2023-02-01T15:30:41.602Z,101056.78
2023-02-01T15:33:10.025Z,101060.78
2023-02-01T15:35:39.664Z,101060.63
2023-02-01T15:38:24.847Z,101069.19
2023-02-01T15:41:17.522Z,101067.63
2023-02-01T15:43:56.720Z,101061.09
2023-02-01T15:46:35.064Z,101069.53
2023-02-01T15:49:02.045Z,101070.31
2023-02-01T15:51:31.872Z,101082.19
2023-02-01T15:54:06.003Z,101076.91
2023-02-01T15:56:38.993Z,101080.09
2023-02-01T15:59:16.186Z,101086.47
2023-02-01T16:01:43.519Z,101089.34
2023-02-01T16:04:34.245Z,101085.88
2023-02-01T16:07:05.746Z,101095.66
2023-02-01T16:09:54.088Z,101095.88
2023-02-01T16:12:32.690Z,101107.50
2023-02-01T16:14:59.705Z,101104.16
2023-02-01T16:17:26.757Z,101109.50
2023-02-01T16:19:54.021Z,101108.84
2023-02-01T16:22:21.027Z,101108.97
2023-02-01T16:24:47.927Z,101095.13
2023-02-01T16:27:14.965Z,101098.84
2023-02-01T16:29:43.274Z,101092.84
2023-02-01T16:32:18.948Z,101098.09
2023-02-01T16:34:47.564Z,101103.13
2023-02-01T16:37:18.492Z,101097.59
2023-02-01T16:39:45.543Z,101093.88
2023-02-01T16:42:14.429Z,101092.75
2023-02-01T16:44:43.468Z,101091.59
2023-02-01T16:47:18.272Z,101091.47
2023-02-01T16:49:46.257Z,101098.31
2023-02-01T16:52:26.610Z,101095.63
2023-02-01T16:54:54.235Z,101094.63
2023-02-01T16:57:25.237Z,101090.13
2023-02-01T16:59:52.599Z,101100.69
2023-02-01T17:02:22.236Z,101099.69
2023-02-01T17:04:50.220Z,101105.81
2023-02-01T17:07:19.976Z,101108.38
2023-02-01T17:09:48.276Z,101115.31
2023-02-01T17:12:30.944Z,101113.47
2023-02-01T17:14:59.342Z,101124.03
2023-02-01T17:17:38.821Z,101121.19
2023-02-01T17:20:07.614Z,101126.34
2023-02-01T17:22:35.154Z,101129.75
2023-02-01T17:25:02.470Z,101129.53
2023-02-01T17:27:30.459Z,101133.69
2023-02-01T17:29:57.538Z,101126.47
2023-02-01T17:32:26.498Z,101138.59
2023-02-01T17:34:53.542Z,101136.47
2023-02-01T17:37:27.884Z,101136.31
2023-02-01T17:39:55.091Z,101131.63
2023-02-01T17:42:23.091Z,101138.41
2023-02-01T17:44:52.974Z,101137.34
2023-02-01T17:47:19.866Z,101148.56
2023-02-01T17:49:46.984Z,101147.50
2023-02-01T17:52:18.747Z,101146.53
2023-02-01T17:54:48.171Z,101150.63
2023-02-01T17:57:15.258Z,101148.63
2023-02-01T17:59:42.459Z,101150.88
2023-02-01T18:02:25.684Z,101152.22
2023-02-01T18:04:53.385Z,101150.97
2023-02-01T18:07:20.554Z,101148.03
2023-02-01T18:09:47.682Z,101145.06
2023-02-01T18:12:23.812Z,101150.06
2023-02-01T18:14:50.783Z,101146.19
2023-02-01T18:17:17.701Z,101142.44
2023-02-01T18:19:44.699Z,101150.16
2023-02-01T18:22:24.902Z,101155.22
2023-02-01T18:24:51.852Z,101145.31
2023-02-01T18:27:18.773Z,101145.88
2023-02-01T18:29:45.663Z,101146.50
2023-02-01T18:32:16.066Z,101152.66
2023-02-01T18:34:43.740Z,101147.34
2023-02-01T18:37:10.813Z,101154.34
2023-02-01T18:39:39.658Z,101153.50
2023-02-01T18:42:06.793Z,101151.63
2023-02-01T18:44:33.624Z,101156.16
2023-02-01T18:47:01.095Z,101152.56
2023-02-01T18:49:27.956Z,101154.28
2023-02-01T18:51:54.848Z,101155.97
2023-02-01T18:54:21.741Z,101155.81
2023-02-01T18:56:48.730Z,101153.16
2023-02-01T18:59:17.892Z,101155.81
2023-02-01T19:01:45.054Z,101150.38
2023-02-01T19:04:16.800Z,101159.00
2023-02-01T19:06:46.051Z,101160.59
2023-02-01T19:09:13.249Z,101150.69
2023-02-01T19:11:40.460Z,101153.25
2023-02-01T19:14:07.640Z,101147.03
2023-02-01T19:16:36.354Z,101154.06
2023-02-01T19:19:03.708Z,101158.78
2023-02-01T19:21:31.068Z,101162.91
2023-02-01T19:23:58.331Z,101165.31
2023-02-01T19:26:25.295Z,101169.31
2023-02-01T19:28:52.325Z,101168.41
2023-02-01T19:31:19.640Z,101172.09
2023-02-01T19:33:47.051Z,101155.03
2023-02-01T19:36:14.170Z,101151.44
2023-02-01T19:38:41.302Z,101163.09
2023-02-01T19:41:08.749Z,101163.53
2023-02-01T19:43:37.265Z,101164.31
2023-02-01T19:46:04.835Z,101153.53
2023-02-01T19:48:32.154Z,101169.44
2023-02-01T19:50:59.543Z,101163.81
2023-02-01T19:53:28.289Z,101157.50
2023-02-01T19:55:58.892Z,101164.25
2023-02-01T19:58:28.565Z,101165.03
2023-02-01T20:00:58.150Z,101162.22
2023-02-01T20:03:25.300Z,101166.38
2023-02-01T20:05:57.410Z,101162.81
2023-02-01T20:08:25.846Z,101167.84
2023-02-01T20:10:53.642Z,101167.84
2023-02-01T20:13:21.841Z,101157.34
2023-02-01T20:15:48.976Z,101167.94
2023-02-01T20:18:16.302Z,101159.19
2023-02-01T20:20:45.105Z,101156.38
2023-02-01T20:23:12.514Z,101160.00
2023-02-01T20:25:42.706Z,101162.81
2023-02-01T20:28:09.910Z,101154.84
2023-02-01T20:30:37.656Z,101160.31
2023-02-01T20:33:06.085Z,101147.06
2023-02-01T20:35:33.819Z,101162.81
2023-02-01T20:38:02.511Z,101162.81
2023-02-01T20:40:30.110Z,101157.19
2023-02-01T20:42:58.813Z,101152.38
2023-02-01T20:45:28.556Z,101148.53
2023-02-01T20:47:58.795Z,101157.84
2023-02-01T20:50:25.901Z,101162.84
2023-02-01T20:52:53.796Z,101165.16
2023-02-01T20:55:24.502Z,101156.91
2023-02-01T20:57:55.435Z,101154.84
2023-02-01T21:00:26.402Z,101151.00
2023-02-01T21:02:53.771Z,101155.19
2023-02-01T21:05:22.116Z,101174.28
2023-02-01T21:07:52.222Z,101180.16
2023-02-01T21:10:19.395Z,101182.47
2023-02-01T21:12:48.023Z,101182.19
2023-02-01T21:15:16.389Z,101184.59
2023-02-01T21:17:43.939Z,101182.59
2023-02-01T21:20:12.049Z,101186.81
2023-02-01T21:22:39.251Z,101196.28
2023-02-01T21:25:06.800Z,101189.88
2023-02-01T21:27:34.021Z,101192.34
2023-02-01T21:30:01.860Z,101201.72
2023-02-01T21:32:29.468Z,101196.34
2023-02-01T21:34:59.069Z,101196.94
2023-02-01T21:37:27.891Z,101202.06
2023-02-01T21:39:57.074Z,101191.25
2023-02-01T21:42:26.858Z,101190.22
2023-02-01T21:44:55.902Z,101188.50
2023-02-01T21:47:25.940Z,101177.00
2023-02-01T21:49:55.282Z,101170.19
2023-02-01T21:52:23.635Z,101164.00
2023-02-01T21:54:57.545Z,101174.44
2023-02-01T21:57:24.671Z,101167.16
2023-02-01T21:59:51.876Z,101162.78
2023-02-01T22:02:19.235Z,101171.63
2023-02-01T22:04:46.280Z,101177.78
2023-02-01T22:07:13.731Z,101177.84
2023-02-01T22:09:41.208Z,101172.84
2023-02-01T22:12:13.002Z,101178.91
2023-02-01T22:14:40.895Z,101184.22
2023-02-01T22:17:07.867Z,101187.91
2023-02-01T22:19:34.896Z,101184.03
2023-02-01T22:22:02.203Z,101188.03
2023-02-01T22:24:29.248Z,101194.03
2023-02-01T22:26:56.229Z,101182.25
2023-02-01T22:29:41.325Z,101172.25
2023-02-01T22:32:08.910Z,101170.81
2023-02-01T22:34:36.074Z,101171.16
2023-02-01T22:37:03.443Z,101182.22
2023-02-01T22:39:30.515Z,101187.88
2023-02-01T22:41:57.788Z,101193.47
2023-02-01T22:44:24.844Z,101186.63
2023-02-01T22:46:51.750Z,101173.69
2023-02-01T22:49:18.693Z,101172.25
2023-02-01T22:51:46.555Z,101164.56
2023-02-01T22:54:19.190Z,101173.75
2023-02-01T22:56:46.183Z,101175.66
2023-02-01T22:59:14.616Z,101183.88
2023-02-01T23:01:42.255Z,101170.88
2023-02-01T23:04:12.513Z,101172.06
2023-02-01T23:06:39.616Z,101181.97
2023-02-01T23:09:15.879Z,101177.84
2023-02-01T23:11:43.732Z,101170.16
2023-02-01T23:14:12.817Z,101175.53
2023-02-01T23:16:41.270Z,101188.13
2023-02-01T23:19:08.444Z,101181.25
2023-02-01T23:21:36.032Z,101187.69
2023-02-01T23:24:07.416Z,101185.19
2023-02-01T23:26:34.875Z,101178.31
2023-02-01T23:29:02.598Z,101176.81
2023-02-01T23:31:32.043Z,101167.28
2023-02-01T23:34:00.864Z,101170.09
2023-02-01T23:36:28.961Z,101164.97
2023-02-01T23:38:56.412Z,101165.16
2023-02-01T23:41:24.425Z,101173.25
2023-02-01T23:44:00.906Z,101175.19
2023-02-01T23:46:36.922Z,101171.88
2023-02-01T23:49:05.676Z,101178.25
2023-02-01T23:51:33.302Z,101174.84
2023-02-01T23:54:00.756Z,101182.94
2023-02-01T23:56:33.656Z,101182.34
2023-02-01T23:59:02.376Z,101175.31
